World of Logs combat log analyzer allows gamers to save, share and analyze their raiding experiences conveniently and thoroughly in the Blizzard MMO World of Warcraft. If you're new here, make sure you check out the tour for a 1 minute introduction. If you have any questions, we're happy to answer them on the forums.

DPS HPS
Odyn
Helya
Guarm
Reports for Blood-Queen Lana'thel - statistics
# Date Time Damage DPS Guild Realm
101 28 Jul 2012 03:10 59.48M 312240.1 Armada Lusitana EU-Aggra
102 20 Sep 2011 03:10 59.41M 311752.4 Froststahl & Teufelskekse EU-Die Silberne Hand
103 20 Oct 2011 03:10 59.46M 311917.1 Right on Red US-Maelstrom
104 05 Jan 2012 03:10 59.47M 311905.9 Reckoning EU-Outland
105 27 Oct 2011 03:10 61.20M 320701.3 Lisowczycy EU-Nagrand
106 26 Nov 2011 03:11 55.95M 292471.9 Phoenix Resurrection US-Proudmoore
107 05 Nov 2011 03:11 58.98M 307792.8 exiled alliance US-Muradin
108 22 Dec 2010 03:11 59.44M 309750.3 Hexed US-Stormrage
109 26 Mar 2011 03:12 59.42M 309131.8 Renaissance EU-Uldaman
110 14 Apr 2012 03:12 59.44M 308674.9 Hail Satan US-Illidan
111 16 Dec 2011 03:13 59.47M 306953.5 The Hordehound Gang US-Dentarg
112 12 Aug 2012 03:14 59.46M 306336.0 Certavi US-Nesingwary
113 08 Jan 2011 03:15 60.06M 307540.3 Faded Dreams US-Blackhand
114 14 Jan 2011 03:15 59.42M 304165.5 Wolfpax EU-Rexxar
115 17 Sep 2011 03:15 60.93M 311758.4 Elite der Apokalpyse EU-Antonidas
116 05 Nov 2011 03:15 59.42M 304000.0 Temporalis Bellatoris EU-Das Syndikat
117 29 Jul 2012 03:15 59.52M 304117.2 Rothalax US-Argent Dawn
118 23 Nov 2010 03:15 59.45M 303424.8 Aftermath US-Kel'Thuzad
119 23 Nov 2010 03:16 59.45M 303225.2 Singularity US-Illidan
120 09 Apr 2012 03:16 59.40M 302635.8 Challenge Accepted [H] US-Quel'dorei
121 19 Oct 2011 03:16 59.40M 302586.1 The Only Escape EU-Kel'Thuzad
122 16 Oct 2011 03:16 59.43M 302642.9 Nub Squad EU-Kul Tiras
123 27 May 2012 03:16 59.43M 302367.6 Faded Memories EU-Frostwolf
124 05 Mar 2012 03:16 59.52M 302463.2 Lekma iéska EU-Die Todeskrallen
125 30 Nov 2010 03:16 59.44M 301802.3 Acid's Logs US-Ner'zhul
126 30 Nov 2010 03:16 59.44M 301797.7 Incarnate US-Ner'zhul
127 03 Jun 2012 03:17 59.81M 303070.1 Ward of Dawn US-Arthas
128 11 Aug 2012 03:17 60.53M 306620.7 Infernale EU-Der Mithrilorden
129 30 Nov 2010 03:17 59.52M 301197.2 Bansath US-Gorgonnash
130 21 Apr 2012 03:17 64.12M 324334.4 Unwise elders EU-Aerie Peak
131 14 Jun 2012 03:18 61.20M 308868.9 Buraan logs EU-Auchindoun
132 17 Nov 2010 03:18 59.46M 298944.4 Nazgul US-Khaz'goroth
133 27 Dec 2011 03:19 59.43M 298524.4 Varjo Soturi Failbarone EU-Alleria
134 02 Aug 2020 03:19 50.50M 253504.6 Vi Måste Stoppa Jafar EU-The Maelstrom
135 18 Nov 2010 03:19 59.48M 298346.6 Revontuli EU-Lightbringer
136 16 Aug 2012 03:19 59.45M 297811.5 LFRs US-Maelstrom
137 09 Apr 2011 03:19 60.55M 302967.2 SECURITY US-Arthas
138 03 May 2012 03:19 60.44M 302344.4 The Stonewall Family US-Proudmoore
139 12 Apr 2012 03:20 59.42M 295691.2 Solwinas Practice EU-Shattered Hand
140 14 Oct 2011 03:21 59.45M 294448.4 sky inferno US-Icecrown
141 26 Mar 2012 03:22 59.42M 293074.7 Knights Of Shadow US-Arthas
142 14 Jan 2012 03:23 60.24M 296559.7 SundayFunday US-Stormscale
143 23 Nov 2010 03:24 61.50M 301279.3 Frenzy's Logs US-Turalyon
144 20 Nov 2011 03:24 55.46M 271153.1 Exøs EU-Dalaran
145 26 May 2012 03:24 59.48M 290475.2 Fraternita Oscura EU-Die ewige Wacht
146 18 Feb 2012 03:25 59.46M 289270.3 SolidCore_10twinks EU-Anetheron
147 21 Oct 2011 03:27 59.37M 286397.3 Guiles Theme Song US-Magtheridon
148 19 Feb 2011 03:27 59.37M 285939.7 Casual US-Hyjal
149 06 Jul 2020 03:28 59.43M 285520.4 Methodize EU-Tarren Mill
150 24 Nov 2010 03:28 59.41M 284260.8 LOG EU-Twisting Nether
151 21 Aug 2011 03:29 55.44M 264309.7 Remedy US-Kalecgos
152 06 Dec 2011 03:30 59.65M 283755.3 Mutual Hatred US-Windrunner
153 24 Apr 2012 03:31 61.51M 291289.1 День Перемен EU-Галакронд
154 26 Dec 2011 03:31 59.41M 280246.6 Iron Edge (A-Raid) EU-Dunemaul
155 17 Mar 2012 03:32 59.42M 280194.7 uda uda US-Greymane
156 18 Mar 2012 03:32 59.45M 279948.2 Namastè US-Sen'jin
157 25 Jul 2012 03:33 59.45M 278914.7 Keyd Team US-Nemesis
158 01 Apr 2012 03:33 59.42M 278310.2 It Will Be Glorious US-Kirin Tor
159 19 Feb 2011 03:33 59.45M 278426.8 The Asparagus Initiative US-Aerie Peak
160 09 Oct 2011 03:33 61.35M 287274.8 Fey Mercurial US-Dath'Remar
161 08 Jun 2020 03:33 80.21M 375571.5 JAG EU-Борейская тундра
162 17 Apr 2011 03:34 59.48M 277786.8 Casual US-Scilla
163 20 Oct 2011 03:34 59.26M 276725.1 Lethal Reunion US-Moonrunner
164 19 Nov 2011 03:34 59.72M 278755.9 Shadowwww EU-Onyxia
165 10 Jan 2012 03:34 59.57M 277857.3 Mutual Hatred US-Windrunner
166 22 Sep 2011 03:34 59.32M 276488.8 SundayFunday US-Stormscale
167 09 Jan 2012 03:34 59.48M 276840.9 Hotzenplotzen EU-Blackmoore
168 12 Feb 2012 03:35 60.84M 282849.4 Has Cookies US-Kel'Thuzad
169 01 Nov 2010 03:35 59.44M 276230.9 Method EU-Twisting Nether
170 01 Nov 2010 03:35 59.44M 276184.7 Method EU-Twisting Nether
171 21 Oct 2011 03:35 60.62M 281429.5 Eddy Personal EU-Laughing Skull
172 03 Aug 2012 03:35 59.50M 275883.7 Mandrailogs EU-Kazzak
173 14 Aug 2011 03:35 59.44M 275533.8 Excited State EU-Aerie Peak
174 29 Nov 2011 03:36 59.75M 276588.8 Resurrection EU-Frostmourne
175 05 Apr 2012 03:36 59.57M 275598.0 Not a Guild US-Illidan
176 30 Sep 2011 03:36 60.61M 280046.3 cubert US-Bloodhoof
177 24 Jan 2012 03:36 59.78M 275849.9 MY EYES ONLY US-Proudmoore
178 01 Sep 2011 03:36 54.05M 249154.6 Order of Sinfonia US-Cenarion Circle
179 24 Aug 2012 03:37 59.52M 274254.8 LFRs US-Maelstrom
180 04 Feb 2012 03:37 59.62M 274625.6 Computus Demum US-Eonar
181 23 Oct 2011 03:37 61.29M 282016.7 Crit Happens US-The Scryers
182 09 Apr 2011 03:38 59.44M 272453.7 TEST EU-Sen'jin
183 22 Oct 2011 03:38 59.46M 272037.3 Furious Pantaloons US-Icecrown
184 10 Sep 2011 03:40 59.46M 270152.7 Erzritter EU-Blackhand
185 19 Aug 2011 03:40 59.54M 270407.3 Brewa's Bossfights US-Garrosh
186 03 Dec 2011 03:40 59.41M 269569.5 Reluctance US-Bonechewer
187 18 Jun 2012 03:40 59.49M 269876.7 Linkon's Personal Logs US-Aerie Peak
188 06 Nov 2011 03:40 59.40M 269284.7 Veritas US-Velen
189 03 Sep 2011 03:40 59.46M 269448.2 Hadise US-Medivh
190 12 Mar 2011 03:40 59.43M 269087.3 Игра Теней EU-Борейская тундра
191 11 May 2020 03:40 59.44M 269133.9 Snartt US-Icecrown
192 13 Apr 2012 03:40 60.76M 275056.2 Scorpos US-Nesingwary
193 01 Nov 2011 03:40 62.37M 282344.4 Refugium EU-Zuluhed
194 16 Apr 2011 03:41 59.53M 269276.1 Acids Personal Logs US-Alexstrasza
195 05 Mar 2012 03:41 60.96M 275666.5 Paranoial Activity EU-Runetotem
196 07 May 2012 03:41 63.86M 288661.0 Raskalov EU-Гордунни
197 02 Feb 2012 03:41 59.89M 270694.8 Deviance US-Jaedenar
198 02 Feb 2012 03:41 59.89M 270692.4 Whisper's logs US-Winterhoof
199 14 Aug 2012 03:41 61.67M 278705.0 Jim logs EU-Kul Tiras
200 31 Dec 2011 03:41 61.55M 277786.3 Alta-Ool US-Stormreaver

Please do not close the page with the ad you want to report.

I've posted a guide on how to report misbehaving ads on the forum. Please follow the instructions and help make the internet a safer place. Thanks for you time.